Time;durP1;ratioP1;P1;durP2;ratioP2;P2;SDS_P1;SDS_P2;PMS_P1;PMS_P2;Temp;Humidity;BMP_temperature;BMP_pressure;BME280_temperature;BME280_humidity;BME280_pressure;Samples;Min_cycle;Max_cycle;Signal;HPM_P1;HPM_P2
2023/06/28 00:00:28;;;;;;;;;;;13.20;99.90;;;;;;5035845;28;19976;-88
2023/06/28 00:02:55;;;;;;;;;;;13.20;99.90;;;;;;5051343;28;19933;-88
2023/06/28 00:05:21;;;;;;;;;;;13.20;99.90;;;;;;5055704;28;19975;-87
2023/06/28 00:07:47;;;;;;;;;;;13.20;99.90;;;;;;5055651;28;19925;-87
2023/06/28 00:10:13;;;;;;;;;;;13.20;99.90;;;;;;5045246;28;19939;-87
2023/06/28 00:12:38;;;;;;;;;;;13.10;99.90;;;;;;5055043;28;20023;-87
2023/06/28 00:15:04;;;;;;;;;;;13.10;99.90;;;;;;5055401;28;20384;-87
2023/06/28 00:17:30;;;;;;;;;;;13.10;99.90;;;;;;5029480;28;20356;-87
2023/06/28 00:20:00;;;;;;;;;;;13.10;99.90;;;;;;5048080;28;19976;-87
2023/06/28 00:22:31;;;;;;;;;;;13.10;99.90;;;;;;5052850;28;19925;-87
2023/06/28 00:25:01;;;;;;;;;;;13.10;99.90;;;;;;5051612;28;19932;-87
2023/06/28 00:27:27;;;;;;;;;;;13.20;99.90;;;;;;5054892;28;19929;-87
2023/06/28 00:29:53;;;;;;;;;;;13.20;99.90;;;;;;5055325;28;19970;-87
2023/06/28 00:32:19;;;;;;;;;;;13.20;99.90;;;;;;5054943;28;20437;-88
2023/06/28 00:34:44;;;;;;;;;;;13.20;99.90;;;;;;5055547;28;20015;-88
2023/06/28 00:37:10;;;;;;;;;;;13.20;99.90;;;;;;5052327;28;19932;-86
2023/06/28 00:39:35;;;;;;;;;;;13.20;99.90;;;;;;5053776;28;20360;-85
2023/06/28 00:42:01;;;;;;;;;;;13.20;99.90;;;;;;5033290;28;20337;-87
2023/06/28 00:44:27;;;;;;;;;;;13.20;99.90;;;;;;5055340;28;19929;-87
2023/06/28 00:46:54;;;;;;;;;;;13.20;99.90;;;;;;5036585;28;20024;-87
2023/06/28 00:49:20;;;;;;;;;;;13.20;99.90;;;;;;5053939;28;19940;-88
2023/06/28 00:51:46;;;;;;;;;;;13.20;99.90;;;;;;5054684;28;19924;-87
2023/06/28 00:54:11;;;;;;;;;;;13.10;99.90;;;;;;5047474;28;19926;-88
2023/06/28 00:56:37;;;;;;;;;;;13.10;99.90;;;;;;5049011;28;20020;-87
2023/06/28 00:59:03;;;;;;;;;;;13.10;99.90;;;;;;5054827;28;19925;-87
2023/06/28 01:01:30;;;;;;;;;;;13.20;99.90;;;;;;5049992;28;20269;-86
2023/06/28 01:03:56;;;;;;;;;;;13.10;99.90;;;;;;5051746;28;19967;-87
2023/06/28 01:06:23;;;;;;;;;;;13.10;99.90;;;;;;5052432;28;20395;-87
2023/06/28 01:08:50;;;;;;;;;;;13.10;99.90;;;;;;5054558;28;20023;-87
2023/06/28 01:11:15;;;;;;;;;;;13.20;99.90;;;;;;5049624;28;19948;-87
2023/06/28 01:13:41;;;;;;;;;;;13.20;99.90;;;;;;5049908;28;20373;-87
2023/06/28 01:16:07;;;;;;;;;;;13.20;99.90;;;;;;5065576;28;19925;-88
2023/06/28 01:18:35;;;;;;;;;;;13.20;99.90;;;;;;5044312;28;19998;-87
2023/06/28 01:21:02;;;;;;;;;;;13.20;99.90;;;;;;5049261;28;19936;-88
2023/06/28 01:23:28;;;;;;;;;;;13.20;99.90;;;;;;5053260;28;19929;-87
2023/06/28 01:25:54;;;;;;;;;;;13.20;99.90;;;;;;5047072;28;19947;-86
2023/06/28 01:28:21;;;;;;;;;;;13.10;99.90;;;;;;5053689;28;19935;-87
2023/06/28 01:30:48;;;;;;;;;;;13.10;99.90;;;;;;5050772;28;19968;-88
2023/06/28 01:33:17;;;;;;;;;;;13.10;99.90;;;;;;5056650;28;20002;-87
2023/06/28 01:35:42;;;;;;;;;;;13.10;99.90;;;;;;5031348;28;19932;-86
2023/06/28 01:38:12;;;;;;;;;;;13.10;99.90;;;;;;5052721;28;19925;-87
2023/06/28 01:40:38;;;;;;;;;;;13.10;99.90;;;;;;5046710;28;19925;-86
2023/06/28 01:43:06;;;;;;;;;;;13.10;99.90;;;;;;5051353;28;19924;-88
2023/06/28 01:45:34;;;;;;;;;;;13.10;99.90;;;;;;5048591;28;20357;-87
2023/06/28 01:48:00;;;;;;;;;;;13.00;99.90;;;;;;5044709;28;20016;-87
2023/06/28 01:50:29;;;;;;;;;;;13.00;99.90;;;;;;5052383;28;20019;-87
2023/06/28 01:52:57;;;;;;;;;;;13.00;99.90;;;;;;5049366;28;19964;-88
2023/06/28 01:55:22;;;;;;;;;;;13.00;99.90;;;;;;5050413;28;19929;-86
2023/06/28 01:57:48;;;;;;;;;;;12.90;99.90;;;;;;5052963;28;19988;-85
2023/06/28 02:00:15;;;;;;;;;;;13.00;99.90;;;;;;5048063;28;20277;-87
2023/06/28 02:02:41;;;;;;;;;;;13.00;99.90;;;;;;5014974;28;19926;-87
2023/06/28 02:05:06;;;;;;;;;;;13.10;99.90;;;;;;5047371;28;19979;-87
2023/06/28 02:07:32;;;;;;;;;;;13.00;99.90;;;;;;5048121;28;19924;-87
2023/06/28 02:09:57;;;;;;;;;;;12.90;99.90;;;;;;5035103;28;19925;-87
2023/06/28 02:12:23;;;;;;;;;;;12.90;99.90;;;;;;5050613;28;19957;-87
2023/06/28 02:14:51;;;;;;;;;;;12.90;99.90;;;;;;5052346;28;19963;-87
2023/06/28 02:17:20;;;;;;;;;;;12.90;99.90;;;;;;5050483;28;19964;-87
2023/06/28 02:19:49;;;;;;;;;;;12.90;99.90;;;;;;5050131;28;19925;-87
2023/06/28 02:22:16;;;;;;;;;;;13.00;99.90;;;;;;5051911;28;19932;-87
2023/06/28 02:24:41;;;;;;;;;;;13.00;99.90;;;;;;5044391;28;20047;-87
2023/06/28 02:27:10;;;;;;;;;;;13.00;99.90;;;;;;5049225;28;20000;-87
2023/06/28 02:29:35;;;;;;;;;;;13.00;99.90;;;;;;5034321;28;19979;-86
2023/06/28 02:32:02;;;;;;;;;;;13.10;99.90;;;;;;5036864;28;19937;-87
2023/06/28 02:34:27;;;;;;;;;;;13.10;99.90;;;;;;5062185;28;19980;-87
2023/06/28 02:36:53;;;;;;;;;;;13.10;99.90;;;;;;5051270;28;19991;-87
2023/06/28 02:39:19;;;;;;;;;;;13.10;99.90;;;;;;5049055;28;19948;-86
2023/06/28 02:41:44;;;;;;;;;;;13.10;99.90;;;;;;5048053;28;20313;-87
2023/06/28 02:44:10;;;;;;;;;;;13.10;99.90;;;;;;5052855;28;20364;-87
2023/06/28 02:46:35;;;;;;;;;;;13.00;99.90;;;;;;5045112;28;19925;-87
2023/06/28 02:49:01;;;;;;;;;;;13.00;99.90;;;;;;5045581;28;20007;-87
2023/06/28 02:51:27;;;;;;;;;;;13.00;99.90;;;;;;5046731;28;19925;-87
2023/06/28 02:53:53;;;;;;;;;;;13.00;99.90;;;;;;5052698;28;20273;-87
2023/06/28 02:56:18;;;;;;;;;;;13.00;99.90;;;;;;5046807;28;19932;-87
2023/06/28 02:58:44;;;;;;;;;;;13.00;99.90;;;;;;5047840;28;20036;-87
2023/06/28 03:01:10;;;;;;;;;;;13.00;99.90;;;;;;5038509;28;19935;-87
2023/06/28 03:03:36;;;;;;;;;;;13.00;99.90;;;;;;5036014;28;19926;-88
2023/06/28 03:06:01;;;;;;;;;;;13.00;99.90;;;;;;5035231;28;19925;-88
2023/06/28 03:08:27;;;;;;;;;;;13.10;99.90;;;;;;5037704;28;19952;-87
2023/06/28 03:10:53;;;;;;;;;;;13.10;99.90;;;;;;5039273;28;19971;-87
2023/06/28 03:13:18;;;;;;;;;;;13.10;99.90;;;;;;5041845;28;19924;-87
2023/06/28 03:15:44;;;;;;;;;;;13.10;99.90;;;;;;5051372;28;19924;-85
2023/06/28 03:18:09;;;;;;;;;;;13.10;99.90;;;;;;5040627;28;19978;-87
2023/06/28 03:20:35;;;;;;;;;;;13.10;99.90;;;;;;5056880;28;19925;-89
2023/06/28 03:23:04;;;;;;;;;;;13.20;99.90;;;;;;5037066;28;19925;-87
2023/06/28 03:25:30;;;;;;;;;;;13.20;99.90;;;;;;5041663;28;19929;-88
2023/06/28 03:27:56;;;;;;;;;;;13.20;99.90;;;;;;5047769;28;19932;-88
2023/06/28 03:30:22;;;;;;;;;;;13.20;99.90;;;;;;5051082;28;20327;-88
2023/06/28 03:32:47;;;;;;;;;;;13.30;99.90;;;;;;5052058;28;19978;-88
2023/06/28 03:35:13;;;;;;;;;;;13.30;99.90;;;;;;5047318;28;20013;-88
2023/06/28 03:37:39;;;;;;;;;;;13.30;99.90;;;;;;5034798;28;19925;-87
2023/06/28 03:40:05;;;;;;;;;;;13.40;99.90;;;;;;5050565;28;19925;-87
2023/06/28 03:42:31;;;;;;;;;;;13.40;99.90;;;;;;5035988;28;19990;-88
2023/06/28 03:44:56;;;;;;;;;;;13.40;99.90;;;;;;5052215;28;19925;-88
2023/06/28 03:47:22;;;;;;;;;;;13.50;99.90;;;;;;5047964;28;19925;-88
2023/06/28 03:49:47;;;;;;;;;;;13.40;99.90;;;;;;5051285;28;20004;-88
2023/06/28 03:52:13;;;;;;;;;;;13.50;99.90;;;;;;5046342;28;20399;-87
2023/06/28 03:54:39;;;;;;;;;;;13.50;99.90;;;;;;5045567;28;19924;-88
2023/06/28 03:57:04;;;;;;;;;;;13.50;99.90;;;;;;5042142;28;19932;-87
2023/06/28 03:59:30;;;;;;;;;;;13.50;99.90;;;;;;5054013;28;19925;-87
2023/06/28 04:01:56;;;;;;;;;;;13.60;99.90;;;;;;5048299;28;19925;-88
2023/06/28 04:04:21;;;;;;;;;;;13.90;99.90;;;;;;5039691;28;19932;-88
2023/06/28 04:06:47;;;;;;;;;;;13.60;99.90;;;;;;5036826;28;19925;-88
2023/06/28 04:09:13;;;;;;;;;;;13.60;99.90;;;;;;5050871;28;20002;-88
2023/06/28 04:11:38;;;;;;;;;;;13.60;99.90;;;;;;5023858;28;20008;-88
2023/06/28 04:14:04;;;;;;;;;;;13.60;99.90;;;;;;5052226;28;19932;-88
2023/06/28 04:16:29;;;;;;;;;;;13.70;99.90;;;;;;5053908;28;19936;-88
2023/06/28 04:18:55;;;;;;;;;;;13.70;99.90;;;;;;5047490;28;19951;-88
2023/06/28 04:21:20;;;;;;;;;;;13.70;99.90;;;;;;5053435;28;19925;-87
2023/06/28 04:23:46;;;;;;;;;;;13.70;99.90;;;;;;5040538;28;19925;-87
2023/06/28 04:26:12;;;;;;;;;;;13.80;99.90;;;;;;5053552;28;20042;-89
2023/06/28 04:28:38;;;;;;;;;;;13.80;99.90;;;;;;5035765;28;20456;-88
2023/06/28 04:31:03;;;;;;;;;;;13.80;99.90;;;;;;5040481;28;20016;-88
2023/06/28 04:33:29;;;;;;;;;;;13.80;99.90;;;;;;5024258;28;20053;-88
2023/06/28 04:35:56;;;;;;;;;;;13.80;99.90;;;;;;5034606;28;20350;-88
2023/06/28 04:38:22;;;;;;;;;;;13.90;99.90;;;;;;5055506;28;20325;-88
2023/06/28 04:40:48;;;;;;;;;;;13.90;99.90;;;;;;5052783;28;19986;-88
2023/06/28 04:43:14;;;;;;;;;;;13.90;99.90;;;;;;5048266;28;20361;-89
2023/06/28 04:45:40;;;;;;;;;;;13.90;99.90;;;;;;5048415;28;19929;-89
2023/06/28 04:48:06;;;;;;;;;;;13.90;99.90;;;;;;5052535;28;20385;-88
2023/06/28 04:50:32;;;;;;;;;;;13.90;99.90;;;;;;5052123;28;19925;-88
2023/06/28 04:52:58;;;;;;;;;;;13.90;99.90;;;;;;5053396;28;20317;-88
2023/06/28 04:55:23;;;;;;;;;;;13.90;99.90;;;;;;5053706;28;20025;-87
2023/06/28 04:57:49;;;;;;;;;;;13.90;99.90;;;;;;5049055;28;19928;-88
2023/06/28 05:00:15;;;;;;;;;;;13.90;99.90;;;;;;5054627;28;19954;-89
2023/06/28 05:02:40;;;;;;;;;;;13.90;99.90;;;;;;5054556;28;20343;-89
2023/06/28 05:05:06;;;;;;;;;;;13.90;99.90;;;;;;5047958;28;20320;-88
2023/06/28 05:07:31;;;;;;;;;;;14.00;99.90;;;;;;5054462;28;20011;-88
2023/06/28 05:09:57;;;;;;;;;;;14.00;99.90;;;;;;5052308;28;19963;-88
2023/06/28 05:12:23;;;;;;;;;;;14.00;99.90;;;;;;5052707;28;19924;-88
2023/06/28 05:14:48;;;;;;;;;;;14.10;99.90;;;;;;5054644;28;19924;-88
2023/06/28 05:17:14;;;;;;;;;;;14.10;99.90;;;;;;5053504;28;19924;-88
2023/06/28 05:19:39;;;;;;;;;;;14.10;99.90;;;;;;5054458;28;20327;-88
2023/06/28 05:22:05;;;;;;;;;;;14.20;99.90;;;;;;5052971;28;19972;-88
2023/06/28 05:24:31;;;;;;;;;;;14.20;99.90;;;;;;5051468;28;19947;-88
2023/06/28 05:26:56;;;;;;;;;;;14.30;99.90;;;;;;5035020;28;20383;-88
2023/06/28 05:29:22;;;;;;;;;;;14.30;99.90;;;;;;5038677;28;19957;-87
2023/06/28 05:31:47;;;;;;;;;;;14.30;99.90;;;;;;5040307;28;19987;-87
2023/06/28 05:34:13;;;;;;;;;;;14.30;99.90;;;;;;5048534;28;19925;-87
2023/06/28 05:36:39;;;;;;;;;;;14.40;99.90;;;;;;5045083;28;19933;-87
2023/06/28 05:39:05;;;;;;;;;;;14.40;99.90;;;;;;5026392;28;19924;-87
2023/06/28 05:41:30;;;;;;;;;;;14.40;99.90;;;;;;5044508;28;19970;-88
2023/06/28 05:43:56;;;;;;;;;;;14.50;99.90;;;;;;5052090;28;19959;-87
2023/06/28 05:46:22;;;;;;;;;;;14.50;99.90;;;;;;5053250;28;20407;-87
2023/06/28 05:48:49;;;;;;;;;;;14.60;99.90;;;;;;5050215;28;19925;-86
2023/06/28 05:51:15;;;;;;;;;;;14.60;99.90;;;;;;5046270;28;19964;-87
2023/06/28 05:53:41;;;;;;;;;;;14.70;99.90;;;;;;5036469;28;20348;-87
2023/06/28 05:56:07;;;;;;;;;;;14.70;99.90;;;;;;5041043;28;19943;-88
2023/06/28 05:58:32;;;;;;;;;;;14.80;99.90;;;;;;5049053;28;19992;-87
2023/06/28 06:00:59;;;;;;;;;;;14.90;99.90;;;;;;5049678;28;19925;-86
2023/06/28 06:03:25;;;;;;;;;;;14.60;99.90;;;;;;5052387;28;19932;-88
2023/06/28 06:05:55;;;;;;;;;;;15.10;99.90;;;;;;5051367;28;20390;-88
2023/06/28 06:08:21;;;;;;;;;;;15.10;99.90;;;;;;5042353;28;20003;-88
2023/06/28 06:10:46;;;;;;;;;;;15.20;99.90;;;;;;5022693;28;19929;-88
2023/06/28 06:13:12;;;;;;;;;;;15.20;99.90;;;;;;5052636;28;19967;-88
2023/06/28 06:15:38;;;;;;;;;;;15.20;99.90;;;;;;5045976;28;20314;-88
2023/06/28 06:18:03;;;;;;;;;;;15.30;99.90;;;;;;5025580;28;19925;-87
2023/06/28 06:20:31;;;;;;;;;;;15.30;99.90;;;;;;5038326;28;20173;-88
2023/06/28 06:22:56;;;;;;;;;;;15.40;99.90;;;;;;5045510;28;19925;-88
2023/06/28 06:25:22;;;;;;;;;;;15.50;99.90;;;;;;5043388;28;19932;-88
2023/06/28 06:27:47;;;;;;;;;;;15.50;99.90;;;;;;5045354;28;20384;-87
2023/06/28 06:30:13;;;;;;;;;;;15.50;99.90;;;;;;5035416;28;19951;-89
2023/06/28 06:32:39;;;;;;;;;;;15.50;99.90;;;;;;5044394;28;20051;-87
2023/06/28 06:35:06;;;;;;;;;;;15.30;99.90;;;;;;5041968;28;21086;-84
2023/06/28 06:37:32;;;;;;;;;;;15.50;99.90;;;;;;5023822;28;19928;-87
2023/06/28 06:39:58;;;;;;;;;;;15.40;99.90;;;;;;5047514;28;19925;-88
2023/06/28 06:42:23;;;;;;;;;;;15.50;99.90;;;;;;5041403;28;19925;-86
2023/06/28 06:44:49;;;;;;;;;;;15.50;99.90;;;;;;5046972;28;19931;-86
2023/06/28 06:47:14;;;;;;;;;;;15.50;99.90;;;;;;5048280;28;19925;-85
2023/06/28 06:49:40;;;;;;;;;;;15.50;99.90;;;;;;5047045;28;19925;-85
2023/06/28 06:52:06;;;;;;;;;;;15.60;99.90;;;;;;5033611;28;19959;-85
2023/06/28 06:54:31;;;;;;;;;;;15.60;99.90;;;;;;5043048;28;19925;-84
2023/06/28 06:57:02;;;;;;;;;;;15.60;99.90;;;;;;5027447;28;19932;-84
2023/06/28 06:59:27;;;;;;;;;;;15.60;99.90;;;;;;5048322;28;19929;-84
2023/06/28 07:01:53;;;;;;;;;;;15.60;99.90;;;;;;5039705;28;20380;-85
2023/06/28 07:04:19;;;;;;;;;;;15.60;99.90;;;;;;5051745;28;19983;-85
2023/06/28 07:06:46;;;;;;;;;;;15.60;99.90;;;;;;5041678;28;19924;-84
2023/06/28 07:09:13;;;;;;;;;;;15.60;99.90;;;;;;5026476;28;20399;-84
2023/06/28 07:11:38;;;;;;;;;;;15.60;99.90;;;;;;5043426;28;19925;-85
2023/06/28 07:14:04;;;;;;;;;;;15.50;99.90;;;;;;5050918;28;19994;-87
2023/06/28 07:16:29;;;;;;;;;;;15.50;99.90;;;;;;5032288;28;19933;-87
2023/06/28 07:18:55;;;;;;;;;;;15.60;99.90;;;;;;5044463;28;20024;-87
2023/06/28 07:21:21;;;;;;;;;;;15.60;99.90;;;;;;5048655;28;19925;-86
2023/06/28 07:23:46;;;;;;;;;;;15.60;99.90;;;;;;5039993;28;20266;-86
2023/06/28 07:26:14;;;;;;;;;;;15.50;99.90;;;;;;5045450;28;19932;-85
2023/06/28 07:28:40;;;;;;;;;;;15.60;99.90;;;;;;5050725;28;19933;-85
2023/06/28 07:31:06;;;;;;;;;;;15.60;99.90;;;;;;5023967;28;19932;-86
2023/06/28 07:33:31;;;;;;;;;;;15.60;99.90;;;;;;5052423;28;20364;-86
2023/06/28 07:35:57;;;;;;;;;;;15.70;99.90;;;;;;5049417;28;19928;-88
2023/06/28 07:38:22;;;;;;;;;;;15.70;99.90;;;;;;5054000;28;19975;-85
2023/06/28 07:40:48;;;;;;;;;;;15.90;99.90;;;;;;5049326;28;19935;-86
2023/06/28 07:43:15;;;;;;;;;;;15.90;99.90;;;;;;5053884;28;19925;-85
2023/06/28 07:45:41;;;;;;;;;;;15.90;99.90;;;;;;5049073;28;19976;-86
2023/06/28 07:48:07;;;;;;;;;;;16.00;99.90;;;;;;5054144;28;20014;-85
2023/06/28 07:50:32;;;;;;;;;;;16.00;99.90;;;;;;5041071;28;19960;-85
2023/06/28 07:52:58;;;;;;;;;;;16.00;99.90;;;;;;5044740;28;19975;-85
2023/06/28 07:55:23;;;;;;;;;;;16.10;99.90;;;;;;5050852;28;19925;-86
2023/06/28 07:57:49;;;;;;;;;;;15.90;99.90;;;;;;5045647;28;19939;-86
2023/06/28 08:00:15;;;;;;;;;;;15.90;99.90;;;;;;5052638;28;19925;-85
2023/06/28 08:02:41;;;;;;;;;;;15.90;99.90;;;;;;5020463;28;19955;-85
2023/06/28 08:05:07;;;;;;;;;;;15.90;99.90;;;;;;5048745;28;19928;-87
2023/06/28 08:07:36;;;;;;;;;;;15.90;99.90;;;;;;5050133;28;19939;-86
2023/06/28 08:10:02;;;;;;;;;;;15.90;99.90;;;;;;5056540;28;19979;-85
2023/06/28 08:12:27;;;;;;;;;;;16.00;99.90;;;;;;5035356;28;19968;-87
2023/06/28 08:14:53;;;;;;;;;;;16.00;99.90;;;;;;5047640;28;20018;-87
2023/06/28 08:17:19;;;;;;;;;;;16.10;99.90;;;;;;5049873;28;19926;-88
2023/06/28 08:19:45;;;;;;;;;;;16.20;99.90;;;;;;5051354;28;19935;-89
2023/06/28 08:22:11;;;;;;;;;;;16.30;99.90;;;;;;5051724;28;19925;-88
2023/06/28 08:24:36;;;;;;;;;;;16.40;99.90;;;;;;5044417;28;20051;-87
2023/06/28 08:27:02;;;;;;;;;;;16.40;99.90;;;;;;5047143;28;19960;-88
2023/06/28 08:29:28;;;;;;;;;;;16.50;99.90;;;;;;5023813;28;19925;-89
2023/06/28 08:31:53;;;;;;;;;;;16.50;99.90;;;;;;5043809;28;20009;-88
2023/06/28 08:34:20;;;;;;;;;;;16.50;99.90;;;;;;5052843;28;20071;-89
2023/06/28 08:36:45;;;;;;;;;;;16.50;99.90;;;;;;5050758;28;19933;-87
2023/06/28 08:39:11;;;;;;;;;;;16.50;99.90;;;;;;5054078;28;19925;-93
2023/06/28 08:41:36;;;;;;;;;;;16.60;99.90;;;;;;5048630;28;19929;-89
2023/06/28 08:44:04;;;;;;;;;;;16.60;99.90;;;;;;5050833;28;19932;-86
2023/06/28 08:46:30;;;;;;;;;;;16.60;99.90;;;;;;5027123;28;20289;-87
2023/06/28 08:48:56;;;;;;;;;;;16.70;99.90;;;;;;5025680;28;19925;-87
2023/06/28 08:51:22;;;;;;;;;;;16.70;99.90;;;;;;5041998;28;19925;-87
2023/06/28 08:53:48;;;;;;;;;;;16.80;99.90;;;;;;5041121;28;19925;-88
2023/06/28 08:56:15;;;;;;;;;;;16.90;99.90;;;;;;5034335;28;20037;-87
2023/06/28 08:58:41;;;;;;;;;;;17.00;99.90;;;;;;5033735;28;20358;-86
2023/06/28 09:01:11;;;;;;;;;;;17.00;99.90;;;;;;5048835;28;20435;-87
2023/06/28 09:03:39;;;;;;;;;;;17.00;99.90;;;;;;5050358;28;20047;-85
2023/06/28 09:06:07;;;;;;;;;;;16.90;99.90;;;;;;5049945;28;19925;-86
2023/06/28 09:08:33;;;;;;;;;;;16.90;99.90;;;;;;5034245;28;19974;-86
2023/06/28 09:10:59;;;;;;;;;;;16.90;99.90;;;;;;5048781;28;20298;-86
2023/06/28 09:13:26;;;;;;;;;;;16.90;99.90;;;;;;5044554;28;19932;-85
2023/06/28 09:15:53;;;;;;;;;;;16.90;99.90;;;;;;5051997;28;20245;-86
2023/06/28 09:18:19;;;;;;;;;;;16.90;99.90;;;;;;5051905;28;19925;-85
2023/06/28 09:21:04;;;;;;;;;;;16.90;99.90;;;;;;5045431;28;19933;-86
2023/06/28 09:23:30;;;;;;;;;;;16.70;99.90;;;;;;5051434;28;19994;-86
2023/06/28 09:25:56;;;;;;;;;;;16.70;99.90;;;;;;5046690;28;19932;-87
2023/06/28 09:28:23;;;;;;;;;;;16.60;99.90;;;;;;5053169;28;20334;-87
2023/06/28 09:30:52;;;;;;;;;;;16.70;99.90;;;;;;5048035;28;19929;-87
2023/06/28 09:33:18;;;;;;;;;;;16.80;99.90;;;;;;5053086;28;19932;-86
2023/06/28 09:35:44;;;;;;;;;;;16.80;99.90;;;;;;5034326;28;19929;-86
2023/06/28 09:38:10;;;;;;;;;;;16.80;99.90;;;;;;5013355;28;19975;-86
2023/06/28 09:40:35;;;;;;;;;;;16.80;99.90;;;;;;5037154;28;19925;-84
2023/06/28 09:43:03;;;;;;;;;;;16.80;99.90;;;;;;5035661;28;20036;-85
2023/06/28 09:45:30;;;;;;;;;;;16.80;99.90;;;;;;5049988;28;19933;-85
2023/06/28 09:47:59;;;;;;;;;;;16.70;99.90;;;;;;5042275;28;19954;-85
2023/06/28 09:50:35;;;;;;;;;;;16.70;99.90;;;;;;5039126;28;19925;-86
2023/06/28 09:53:01;;;;;;;;;;;16.70;99.90;;;;;;5047318;28;19929;-86
2023/06/28 09:55:26;;;;;;;;;;;16.80;99.90;;;;;;5038584;28;19947;-87
2023/06/28 09:57:52;;;;;;;;;;;16.80;99.90;;;;;;5042902;28;19928;-86
2023/06/28 10:00:20;;;;;;;;;;;16.90;99.90;;;;;;5042426;28;19940;-85
2023/06/28 10:02:47;;;;;;;;;;;16.90;99.90;;;;;;5046059;28;20011;-86
2023/06/28 10:05:13;;;;;;;;;;;16.90;99.90;;;;;;5050388;28;19967;-87
2023/06/28 10:07:39;;;;;;;;;;;17.00;99.90;;;;;;5046989;28;20257;-86
2023/06/28 10:10:07;;;;;;;;;;;16.90;99.90;;;;;;5046852;28;20324;-86
2023/06/28 10:12:34;;;;;;;;;;;16.90;99.90;;;;;;5046930;28;20365;-88
2023/06/28 10:15:02;;;;;;;;;;;16.90;99.90;;;;;;5029412;28;19936;-86
2023/06/28 10:17:31;;;;;;;;;;;16.90;99.90;;;;;;5040939;28;19929;-85
2023/06/28 10:19:57;;;;;;;;;;;17.00;99.90;;;;;;5052128;28;19987;-87
2023/06/28 10:22:23;;;;;;;;;;;17.00;99.90;;;;;;5030333;28;19925;-87
2023/06/28 10:24:49;;;;;;;;;;;17.00;99.90;;;;;;5047268;28;19978;-87
2023/06/28 10:27:15;;;;;;;;;;;17.00;99.90;;;;;;5047187;28;19932;-86
2023/06/28 10:29:41;;;;;;;;;;;17.00;99.90;;;;;;5050104;28;20437;-85
2023/06/28 10:32:07;;;;;;;;;;;17.00;99.90;;;;;;5047056;28;20016;-86
2023/06/28 10:34:34;;;;;;;;;;;17.00;99.90;;;;;;5049486;28;20032;-85
2023/06/28 10:37:00;;;;;;;;;;;17.10;99.90;;;;;;5043656;28;20420;-86
2023/06/28 10:39:26;;;;;;;;;;;17.10;99.90;;;;;;5048014;28;20243;-87
2023/06/28 10:41:55;;;;;;;;;;;17.20;99.90;;;;;;5049062;28;20300;-89
2023/06/28 10:44:21;;;;;;;;;;;17.10;99.90;;;;;;5045418;28;20020;-87
2023/06/28 10:46:50;;;;;;;;;;;17.20;99.90;;;;;;5042128;28;20012;-88
2023/06/28 10:49:15;;;;;;;;;;;17.10;99.90;;;;;;5047303;28;20337;-88
2023/06/28 10:51:44;;;;;;;;;;;17.10;99.90;;;;;;5050628;28;19936;-88
2023/06/28 10:54:12;;;;;;;;;;;17.10;99.90;;;;;;5041295;28;19929;-88
2023/06/28 10:56:42;;;;;;;;;;;17.00;99.90;;;;;;5027610;28;20292;-87
2023/06/28 10:59:08;;;;;;;;;;;17.00;99.90;;;;;;5033188;28;19925;-88
2023/06/28 11:01:53;;;;;;;;;;;16.90;99.90;;;;;;5022398;28;19925;-88
2023/06/28 11:04:18;;;;;;;;;;;16.90;99.90;;;;;;5051987;28;20285;-88
2023/06/28 11:06:45;;;;;;;;;;;16.90;99.90;;;;;;5047692;28;19925;-89
2023/06/28 11:09:14;;;;;;;;;;;16.90;99.90;;;;;;5045953;28;20011;-88
2023/06/28 11:12:00;;;;;;;;;;;17.00;99.90;;;;;;5049957;28;20419;-88
2023/06/28 11:14:27;;;;;;;;;;;17.00;99.90;;;;;;5043273;28;19955;-89
2023/06/28 11:17:06;;;;;;;;;;;17.00;99.90;;;;;;5048367;28;19936;-89
2023/06/28 11:19:32;;;;;;;;;;;17.10;99.90;;;;;;5041924;28;19940;-88
2023/06/28 11:22:00;;;;;;;;;;;17.10;99.90;;;;;;5046170;28;19925;-89
2023/06/28 11:24:29;;;;;;;;;;;17.20;99.90;;;;;;5048789;28;20335;-89
2023/06/28 11:26:54;;;;;;;;;;;17.20;99.90;;;;;;5038363;28;19924;-89
2023/06/28 11:29:20;;;;;;;;;;;17.20;99.90;;;;;;5051623;28;20027;-88
2023/06/28 11:31:50;;;;;;;;;;;17.20;99.90;;;;;;5046822;28;20373;-88
2023/06/28 11:34:16;;;;;;;;;;;17.20;99.90;;;;;;5046646;28;19932;-88
2023/06/28 11:36:45;;;;;;;;;;;17.20;99.90;;;;;;5046282;28;19925;-88
2023/06/28 11:39:21;;;;;;;;;;;17.10;99.90;;;;;;5032184;28;19931;-88
2023/06/28 11:41:47;;;;;;;;;;;17.10;99.90;;;;;;5046650;28;19955;-88
2023/06/28 11:44:13;;;;;;;;;;;17.10;99.90;;;;;;5052727;28;19972;-88
2023/06/28 11:46:39;;;;;;;;;;;17.10;99.90;;;;;;5047637;28;20395;-89
2023/06/28 11:49:05;;;;;;;;;;;17.10;99.90;;;;;;5050344;28;19972;-88
2023/06/28 11:51:30;;;;;;;;;;;16.30;99.90;;;;;;5034406;28;20332;-88
2023/06/28 11:53:56;;;;;;;;;;;17.20;99.90;;;;;;5052754;28;19932;-89
2023/06/28 11:56:51;;;;;;;;;;;17.20;99.90;;;;;;5033467;28;20292;-89
2023/06/28 11:59:18;;;;;;;;;;;17.20;99.90;;;;;;5038096;28;19971;-88
2023/06/28 12:01:44;;;;;;;;;;;17.20;99.90;;;;;;5041330;28;20389;-89
2023/06/28 12:04:13;;;;;;;;;;;17.30;99.90;;;;;;5038121;28;19929;-88
2023/06/28 12:06:41;;;;;;;;;;;17.40;99.90;;;;;;5035624;28;20292;-89
2023/06/28 12:09:24;;;;;;;;;;;17.40;99.90;;;;;;5041440;28;19940;-88
2023/06/28 12:11:51;;;;;;;;;;;17.50;99.90;;;;;;5041525;28;19925;-89
2023/06/28 12:14:17;;;;;;;;;;;17.40;99.90;;;;;;5037396;28;19932;-89
2023/06/28 12:16:45;;;;;;;;;;;17.50;99.90;;;;;;5020358;28;19926;-88
2023/06/28 12:19:10;;;;;;;;;;;17.50;99.90;;;;;;5023562;28;19990;-87
2023/06/28 12:21:37;;;;;;;;;;;17.50;99.90;;;;;;5034679;28;20402;-87
2023/06/28 12:24:13;;;;;;;;;;;17.50;99.90;;;;;;5055529;28;19936;-87
2023/06/28 12:26:39;;;;;;;;;;;17.50;99.90;;;;;;5034429;28;19925;-88
2023/06/28 12:29:08;;;;;;;;;;;17.60;99.90;;;;;;5047630;28;20265;-88
2023/06/28 12:31:43;;;;;;;;;;;17.60;99.90;;;;;;5037528;28;19925;-87
2023/06/28 12:34:08;;;;;;;;;;;17.50;99.90;;;;;;5048876;28;19925;-86
2023/06/28 12:36:34;;;;;;;;;;;17.60;99.90;;;;;;5047743;28;20441;-87
2023/06/28 12:39:00;;;;;;;;;;;17.50;99.90;;;;;;5040428;28;19968;-87
2023/06/28 12:41:26;;;;;;;;;;;17.50;99.90;;;;;;5048972;28;19924;-87
2023/06/28 12:43:56;;;;;;;;;;;17.50;99.90;;;;;;5055502;28;19924;-87
2023/06/28 12:46:21;;;;;;;;;;;17.60;99.90;;;;;;5041946;28;19929;-86
2023/06/28 12:48:48;;;;;;;;;;;17.60;99.90;;;;;;5047190;28;19925;-87
2023/06/28 12:51:14;;;;;;;;;;;17.60;99.90;;;;;;5048329;28;19925;-87
2023/06/28 12:53:39;;;;;;;;;;;17.60;99.90;;;;;;5048850;28;20455;-87
2023/06/28 12:56:05;;;;;;;;;;;17.60;99.90;;;;;;5048075;28;20020;-87
2023/06/28 12:58:31;;;;;;;;;;;17.50;99.90;;;;;;5020157;28;19948;-87
2023/06/28 13:00:56;;;;;;;;;;;17.60;99.90;;;;;;5045865;28;19925;-87
2023/06/28 13:03:22;;;;;;;;;;;17.50;99.90;;;;;;5036793;28;19932;-87
2023/06/28 13:05:47;;;;;;;;;;;17.50;99.90;;;;;;5040929;28;19948;-87
2023/06/28 13:08:13;;;;;;;;;;;17.50;99.90;;;;;;5037797;28;20391;-87
2023/06/28 13:10:38;;;;;;;;;;;17.50;99.90;;;;;;5038492;28;20007;-85
2023/06/28 13:13:04;;;;;;;;;;;17.60;99.90;;;;;;5054055;28;19932;-86
2023/06/28 13:15:30;;;;;;;;;;;17.60;99.90;;;;;;5045455;28;19936;-87
2023/06/28 13:17:56;;;;;;;;;;;17.60;99.90;;;;;;5026022;28;20458;-87
2023/06/28 13:20:21;;;;;;;;;;;17.70;99.90;;;;;;5053333;28;19924;-86
2023/06/28 13:22:47;;;;;;;;;;;17.80;99.90;;;;;;5037571;28;19925;-86
2023/06/28 13:25:13;;;;;;;;;;;17.80;99.90;;;;;;5036305;28;19986;-87
2023/06/28 13:27:39;;;;;;;;;;;17.90;99.90;;;;;;5050378;28;19933;-86
2023/06/28 13:30:05;;;;;;;;;;;18.00;99.90;;;;;;5044137;28;19976;-87
2023/06/28 13:32:31;;;;;;;;;;;18.00;99.90;;;;;;5053013;28;19924;-86
2023/06/28 13:34:56;;;;;;;;;;;18.10;99.90;;;;;;5041616;28;19925;-86
2023/06/28 13:37:22;;;;;;;;;;;18.20;99.90;;;;;;5041139;28;19937;-87
2023/06/28 13:39:48;;;;;;;;;;;18.20;99.90;;;;;;5048352;28;19964;-86
2023/06/28 13:42:13;;;;;;;;;;;18.20;99.90;;;;;;5046098;28;20397;-86
2023/06/28 13:44:39;;;;;;;;;;;18.40;99.90;;;;;;5048819;28;19991;-86
2023/06/28 13:47:05;;;;;;;;;;;18.40;99.90;;;;;;5033187;28;20361;-86
2023/06/28 13:49:32;;;;;;;;;;;18.50;99.90;;;;;;5054552;28;19925;-86
2023/06/28 13:51:58;;;;;;;;;;;18.50;99.90;;;;;;5044536;28;19959;-86
2023/06/28 13:54:23;;;;;;;;;;;18.60;99.90;;;;;;5057048;28;19925;-86
2023/06/28 13:56:49;;;;;;;;;;;18.60;99.90;;;;;;5028135;28;19929;-86
2023/06/28 13:59:14;;;;;;;;;;;18.60;99.90;;;;;;5028761;28;19974;-86
2023/06/28 14:01:40;;;;;;;;;;;18.60;99.90;;;;;;5055033;28;19941;-85
2023/06/28 14:04:06;;;;;;;;;;;18.60;99.90;;;;;;5047508;28;19925;-87
2023/06/28 14:06:31;;;;;;;;;;;18.60;99.90;;;;;;5039880;28;19925;-86
2023/06/28 14:08:57;;;;;;;;;;;18.50;99.90;;;;;;5031297;28;19925;-85
2023/06/28 14:11:23;;;;;;;;;;;18.50;99.90;;;;;;5049852;28;19925;-86